createdAt,value
2023-02-01T00:02:23.572Z,3.83
2023-02-01T00:06:26.353Z,3.90
2023-02-01T00:10:30.662Z,4.13
2023-02-01T00:14:39.179Z,4.60
2023-02-01T00:18:41.952Z,4.37
2023-02-01T00:22:44.684Z,4.60
2023-02-01T00:26:49.223Z,3.93
2023-02-01T00:30:58.601Z,3.80
2023-02-01T00:35:01.656Z,3.77
2023-02-01T00:39:04.874Z,3.60
2023-02-01T00:43:09.232Z,3.43
2023-02-01T00:47:11.932Z,3.40
2023-02-01T00:51:16.149Z,3.53
2023-02-01T00:55:18.894Z,3.20
2023-02-01T00:59:23.225Z,3.10
2023-02-01T01:03:25.928Z,3.00
2023-02-01T01:07:29.655Z,3.53
2023-02-01T01:11:34.659Z,2.77
2023-02-01T01:15:42.284Z,2.63
2023-02-01T01:19:45.297Z,3.07
2023-02-01T01:23:48.749Z,3.00
2023-02-01T01:27:51.445Z,2.90
2023-02-01T01:31:57.364Z,2.70
2023-02-01T01:36:00.117Z,3.00
2023-02-01T01:40:02.799Z,2.90
2023-02-01T01:44:07.350Z,2.70
2023-02-01T01:48:15.770Z,3.03
2023-02-01T01:52:18.574Z,2.97
2023-02-01T01:56:21.505Z,3.13
2023-02-01T02:00:24.757Z,3.20
2023-02-01T02:04:29.785Z,2.70
2023-02-01T02:08:32.787Z,2.93
2023-02-01T02:12:35.524Z,2.80
2023-02-01T02:17:00.320Z,2.60
2023-02-01T02:21:26.956Z,2.50
2023-02-01T02:25:48.139Z,3.17
2023-02-01T02:30:20.236Z,2.97
2023-02-01T02:34:28.207Z,3.37
2023-02-01T02:38:35.639Z,3.33
2023-02-01T02:43:00.983Z,3.50
2023-02-01T02:47:23.315Z,3.83
2023-02-01T02:51:48.723Z,3.57
2023-02-01T02:55:52.958Z,2.73
2023-02-01T03:00:14.926Z,3.00
2023-02-01T03:04:18.762Z,2.80
2023-02-01T03:08:23.673Z,2.53
2023-02-01T03:12:44.045Z,2.70
2023-02-01T03:16:49.880Z,2.60
2023-02-01T03:20:54.361Z,2.53
2023-02-01T03:25:02.051Z,2.73
2023-02-01T03:29:08.333Z,2.90
2023-02-01T03:33:22.942Z,2.90
2023-02-01T03:37:28.594Z,3.37
2023-02-01T03:41:37.887Z,3.47
2023-02-01T03:45:43.573Z,3.20
2023-02-01T03:49:48.864Z,3.63
2023-02-01T03:53:52.003Z,3.50
2023-02-01T03:57:59.591Z,4.03
2023-02-01T04:02:02.426Z,3.80
2023-02-01T04:06:05.526Z,4.10
2023-02-01T04:10:09.107Z,3.83
2023-02-01T04:14:13.215Z,4.17
2023-02-01T04:18:15.878Z,4.23
2023-02-01T04:22:18.601Z,4.17
2023-02-01T04:26:21.856Z,4.20
2023-02-01T04:30:26.238Z,4.20
2023-02-01T04:34:29.013Z,4.07
2023-02-01T04:38:33.142Z,4.07
2023-02-01T04:42:35.825Z,3.60
2023-02-01T04:46:40.459Z,4.00
2023-02-01T04:50:43.182Z,3.97
2023-02-01T04:54:45.854Z,3.90
2023-02-01T04:58:48.819Z,4.47
2023-02-01T05:02:53.115Z,6.27
2023-02-01T05:06:55.797Z,4.13
2023-02-01T05:10:59.762Z,3.60
2023-02-01T05:15:02.509Z,3.70
2023-02-01T05:19:06.811Z,2.57
2023-02-01T05:23:09.521Z,2.60
2023-02-01T05:27:12.247Z,2.00
2023-02-01T05:31:15.174Z,2.40
2023-02-01T05:35:19.751Z,1.67
2023-02-01T05:39:22.483Z,1.80
2023-02-01T05:43:25.206Z,1.93
2023-02-01T05:47:27.975Z,1.43
2023-02-01T05:51:32.453Z,1.50
2023-02-01T05:55:35.502Z,1.43
2023-02-01T05:59:41.980Z,1.60
2023-02-01T06:03:44.913Z,1.70
2023-02-01T06:07:50.565Z,1.63
2023-02-01T06:11:53.259Z,1.60
2023-02-01T06:15:56.808Z,1.40
2023-02-01T06:19:59.625Z,1.20
2023-02-01T06:24:03.711Z,1.30
2023-02-01T06:28:07.144Z,1.10
2023-02-01T06:32:10.153Z,0.90
2023-02-01T06:36:14.165Z,0.93
2023-02-01T06:40:18.720Z,1.10
2023-02-01T06:44:21.846Z,0.93
2023-02-01T06:48:24.792Z,0.90
2023-02-01T06:52:27.564Z,1.20
2023-02-01T06:56:32.465Z,1.23
2023-02-01T07:00:35.265Z,1.20
2023-02-01T07:04:38.004Z,1.50
2023-02-01T07:08:40.740Z,1.40
2023-02-01T07:12:44.895Z,1.80
2023-02-01T07:16:47.677Z,1.67
2023-02-01T07:20:52.175Z,2.33
2023-02-01T07:24:54.866Z,2.00
2023-02-01T07:28:59.231Z,1.60
2023-02-01T07:33:02.200Z,2.13
2023-02-01T07:37:04.996Z,1.90
2023-02-01T07:41:09.009Z,2.03
2023-02-01T07:45:21.303Z,2.00
2023-02-01T07:49:24.496Z,2.10
2023-02-01T07:53:27.615Z,2.00
2023-02-01T07:57:30.380Z,1.93
2023-02-01T08:01:34.551Z,2.03
2023-02-01T08:05:37.926Z,2.10
2023-02-01T08:09:40.940Z,1.90
2023-02-01T08:13:44.137Z,1.80
2023-02-01T08:17:51.871Z,2.03
2023-02-01T08:21:54.685Z,1.63
2023-02-01T08:26:06.712Z,1.63
2023-02-01T08:30:10.754Z,1.67
2023-02-01T08:34:14.888Z,1.50
2023-02-01T08:38:17.922Z,1.67
2023-02-01T08:42:38.437Z,1.80
2023-02-01T08:46:41.505Z,1.40
2023-02-01T08:50:45.688Z,1.47
2023-02-01T08:54:48.592Z,2.20
2023-02-01T08:58:51.439Z,2.00
2023-02-01T09:02:54.224Z,2.00
2023-02-01T09:06:58.625Z,1.93
2023-02-01T09:11:03.328Z,1.60
2023-02-01T09:15:08.289Z,2.10
2023-02-01T09:19:27.457Z,2.30
2023-02-01T09:23:32.108Z,1.80
2023-02-01T09:27:35.139Z,1.77
2023-02-01T09:31:40.017Z,1.90
2023-02-01T09:35:42.928Z,1.87
2023-02-01T09:39:47.041Z,1.73
2023-02-01T09:43:56.181Z,1.83
2023-02-01T09:48:02.601Z,2.07
2023-02-01T09:52:09.174Z,1.50
2023-02-01T09:56:15.459Z,1.80
2023-02-01T10:00:22.826Z,1.80
2023-02-01T10:04:25.866Z,1.70
2023-02-01T10:08:38.316Z,2.10
2023-02-01T10:12:52.834Z,1.87
2023-02-01T10:16:59.937Z,2.50
2023-02-01T10:21:09.055Z,2.23
2023-02-01T10:25:17.283Z,2.73
2023-02-01T10:29:23.250Z,2.57
2023-02-01T10:33:28.634Z,2.63
2023-02-01T10:37:33.033Z,2.60
2023-02-01T10:41:38.488Z,2.67
2023-02-01T10:45:43.505Z,2.70
2023-02-01T10:49:52.839Z,2.97
2023-02-01T10:53:57.981Z,2.90
2023-02-01T10:58:02.447Z,2.90
2023-02-01T11:02:18.175Z,2.80
2023-02-01T11:06:27.225Z,3.10
2023-02-01T11:10:38.036Z,2.67
2023-02-01T11:14:41.852Z,3.20
2023-02-01T11:18:46.002Z,3.03
2023-02-01T11:22:50.246Z,3.50
2023-02-01T11:26:53.833Z,2.97
2023-02-01T11:30:58.973Z,2.27
2023-02-01T11:35:05.396Z,2.40
2023-02-01T11:39:28.152Z,2.70
2023-02-01T11:43:31.533Z,2.40
2023-02-01T11:47:41.992Z,3.00
2023-02-01T11:51:54.495Z,2.17
2023-02-01T11:56:07.866Z,2.73
2023-02-01T12:00:26.074Z,2.60
2023-02-01T12:05:03.907Z,2.10
2023-02-01T12:09:24.021Z,2.47
2023-02-01T12:13:40.101Z,2.30
2023-02-01T12:18:01.971Z,2.67
2023-02-01T12:22:24.572Z,2.37
2023-02-01T12:26:45.519Z,2.60
2023-02-01T12:31:14.083Z,2.93
2023-02-01T12:35:28.374Z,2.43
2023-02-01T12:39:39.510Z,2.87
2023-02-01T12:43:47.797Z,3.00
2023-02-01T12:47:54.638Z,2.87
2023-02-01T12:52:02.576Z,2.87
2023-02-01T12:56:10.995Z,2.90
2023-02-01T13:00:23.942Z,2.97
2023-02-01T13:04:35.345Z,2.67
2023-02-01T13:08:44.727Z,2.63
2023-02-01T13:12:53.150Z,2.83
2023-02-01T13:17:01.993Z,2.37
2023-02-01T13:21:07.990Z,2.73
2023-02-01T13:25:14.891Z,2.60
2023-02-01T13:29:21.933Z,2.73
2023-02-01T13:33:58.072Z,2.80
2023-02-01T13:38:40.658Z,2.90
2023-02-01T13:42:49.636Z,2.90
2023-02-01T13:46:54.373Z,2.60
2023-02-01T13:50:58.913Z,2.77
2023-02-01T13:55:18.421Z,2.60
2023-02-01T13:59:52.741Z,2.27
2023-02-01T14:03:56.577Z,2.50
2023-02-01T14:08:14.112Z,2.53
2023-02-01T14:12:47.300Z,2.50
2023-02-01T14:17:20.067Z,2.30
2023-02-01T14:21:26.563Z,2.50
2023-02-01T14:25:34.766Z,2.47
2023-02-01T14:29:40.041Z,2.07
2023-02-01T14:33:44.027Z,2.43
2023-02-01T14:37:53.220Z,2.83
2023-02-01T14:42:02.246Z,3.00
2023-02-01T14:46:08.966Z,2.30
2023-02-01T14:50:28.940Z,2.33
2023-02-01T14:54:31.866Z,2.50
2023-02-01T14:58:42.044Z,2.67
2023-02-01T15:02:47.986Z,2.23
2023-02-01T15:06:52.423Z,2.20
2023-02-01T15:10:55.728Z,2.23
2023-02-01T15:15:24.052Z,2.53
2023-02-01T15:19:31.513Z,2.80
2023-02-01T15:23:34.973Z,2.20
2023-02-01T15:27:38.505Z,2.63
2023-02-01T15:31:43.983Z,2.53
2023-02-01T15:35:49.744Z,2.20
2023-02-01T15:40:08.911Z,2.70
2023-02-01T15:44:21.978Z,2.70
2023-02-01T15:48:25.932Z,2.47
2023-02-01T15:52:36.906Z,2.17
2023-02-01T15:56:41.951Z,2.43
2023-02-01T16:00:46.688Z,2.27
2023-02-01T16:04:51.904Z,3.00
2023-02-01T16:08:57.946Z,2.80
2023-02-01T16:13:01.339Z,2.70
2023-02-01T16:17:04.063Z,2.60
2023-02-01T16:21:08.956Z,2.27
2023-02-01T16:25:13.325Z,2.73
2023-02-01T16:29:17.246Z,2.30
2023-02-01T16:33:22.828Z,2.20
2023-02-01T16:37:28.936Z,1.97
2023-02-01T16:41:33.568Z,2.87
2023-02-01T16:45:36.313Z,2.27
2023-02-01T16:49:39.100Z,2.47
2023-02-01T16:53:53.830Z,2.70
2023-02-01T16:57:58.570Z,2.50
2023-02-01T17:02:01.358Z,2.37
2023-02-01T17:06:04.485Z,2.87
2023-02-01T17:10:09.429Z,2.60
2023-02-01T17:14:17.718Z,2.80
2023-02-01T17:18:20.688Z,2.40
2023-02-01T17:22:24.266Z,2.60
2023-02-01T17:26:27.378Z,2.40
2023-02-01T17:30:32.398Z,2.37
2023-02-01T17:34:35.184Z,2.47
2023-02-01T17:38:38.132Z,2.57
2023-02-01T17:42:40.857Z,2.53
2023-02-01T17:46:46.416Z,2.57
2023-02-01T17:50:52.734Z,2.70
2023-02-01T17:54:56.201Z,2.40
2023-02-01T17:59:00.120Z,2.40
2023-02-01T18:03:04.672Z,2.70
2023-02-01T18:07:07.595Z,2.43
2023-02-01T18:11:13.790Z,2.70
2023-02-01T18:15:19.200Z,2.93
2023-02-01T18:19:23.602Z,2.90
2023-02-01T18:23:26.681Z,2.77
2023-02-01T18:27:29.770Z,2.67
2023-02-01T18:31:33.603Z,2.77
2023-02-01T18:35:37.830Z,2.63
2023-02-01T18:39:40.519Z,2.90
2023-02-01T18:43:43.668Z,3.13
2023-02-01T18:47:46.513Z,3.47
2023-02-01T18:51:52.130Z,3.00
2023-02-01T18:55:55.811Z,3.00
2023-02-01T18:59:58.622Z,2.50
2023-02-01T19:04:08.078Z,2.70
2023-02-01T19:08:24.383Z,2.40
2023-02-01T19:12:27.168Z,3.00
2023-02-01T19:16:30.193Z,3.10
2023-02-01T19:20:32.961Z,2.57
2023-02-01T19:24:37.030Z,2.97
2023-02-01T19:28:39.924Z,3.40
2023-02-01T19:32:43.004Z,3.30
2023-02-01T19:36:45.738Z,3.50
2023-02-01T19:40:51.196Z,3.47
2023-02-01T19:44:54.235Z,2.50
2023-02-01T19:48:57.110Z,3.17
2023-02-01T19:52:59.748Z,3.20
2023-02-01T19:57:03.993Z,3.00
2023-02-01T20:01:07.022Z,2.83
2023-02-01T20:05:11.763Z,2.63
2023-02-01T20:09:14.740Z,2.83
2023-02-01T20:13:19.128Z,2.97
2023-02-01T20:17:21.818Z,2.77
2023-02-01T20:21:24.556Z,2.70
2023-02-01T20:25:27.550Z,2.97
2023-02-01T20:29:32.903Z,2.83
2023-02-01T20:33:35.672Z,3.03
2023-02-01T20:37:38.500Z,3.03
2023-02-01T20:41:41.548Z,2.80
2023-02-01T20:45:46.114Z,3.00
2023-02-01T20:49:48.857Z,2.53
2023-02-01T20:53:54.248Z,2.57
2023-02-01T20:57:57.709Z,3.17
2023-02-01T21:02:02.565Z,2.97
2023-02-01T21:06:06.310Z,3.20
2023-02-01T21:10:11.240Z,2.67
2023-02-01T21:14:14.031Z,2.97
2023-02-01T21:18:18.404Z,3.13
2023-02-01T21:22:21.344Z,2.97
2023-02-01T21:26:26.582Z,4.50
2023-02-01T21:30:29.346Z,3.00
2023-02-01T21:34:33.396Z,3.00
2023-02-01T21:38:36.116Z,2.73
2023-02-01T21:42:40.417Z,2.70
2023-02-01T21:46:43.571Z,2.77
2023-02-01T21:50:47.676Z,3.10
2023-02-01T21:54:56.878Z,3.03
2023-02-01T21:58:59.624Z,2.30
2023-02-01T22:03:02.572Z,2.77
2023-02-01T22:07:06.806Z,2.63
2023-02-01T22:11:09.805Z,2.87
2023-02-01T22:15:13.081Z,2.70
2023-02-01T22:19:15.989Z,2.77
2023-02-01T22:23:20.018Z,2.57
2023-02-01T22:27:22.705Z,2.80
2023-02-01T22:31:45.746Z,2.63
2023-02-01T22:35:50.782Z,2.57
2023-02-01T22:39:56.924Z,2.43
2023-02-01T22:44:00.456Z,2.73
2023-02-01T22:48:03.142Z,2.87
2023-02-01T22:52:05.871Z,2.63
2023-02-01T22:56:12.682Z,2.60
2023-02-01T23:00:16.010Z,2.60
2023-02-01T23:04:21.297Z,2.53
2023-02-01T23:08:24.307Z,2.67
2023-02-01T23:12:28.362Z,2.50
2023-02-01T23:16:31.031Z,2.47
2023-02-01T23:20:33.735Z,2.50
2023-02-01T23:24:36.426Z,2.37
2023-02-01T23:28:40.956Z,2.63
2023-02-01T23:32:43.684Z,2.93
2023-02-01T23:36:46.395Z,2.60
2023-02-01T23:40:49.588Z,2.30
2023-02-01T23:44:53.863Z,2.53
2023-02-01T23:48:57.209Z,2.37
2023-02-01T23:52:59.883Z,2.20
2023-02-01T23:57:02.617Z,2.43
